Jack Mc Namara Field Airport
KCEC : rendu visible

Aérodrome :











RETROUVEZ-NOUS SUR...

 
LOGIN :

S'inscrire | Disclaimer

   EN    FR    IT 

 









Légende :    VFR   VFR Marginal   IFR   IFR Intensif   IFR Très Intensif
Visi : 
Plafond : 
>= 8 km
>= 3000ft
5 à 8 km
1000 à 3000 ft
1500m à 5 km
500 à 1000 ft
800 à 1500m
200 à 500 ft
< 800m
< 200 ft
Symboles :   Orages  Brouillard  Fortes neiges  Fortes précipitations  Vent > 20 kt






- Altitude de l'aérodrome : 61 ft
- Code IATA : CEC


KCEC - Jack Mc Namara Field

DERNIER METAR :
  • 242156Z AUTO 18007KT 10SM CLR 12/10 A3011 RMK AO2 SLP196 T01220100

METARs EXPIRÉS :
  • 242056Z AUTO 16009KT 10SM CLR 11/11 A3013 RMK AO2 SLP202 T01110106 58006
  • 242040Z AUTO 18010KT 10SM SCT026 11/11 A3014 RMK AO2 T01110106
  • 242024Z AUTO 17008KT 10SM BKN028 12/11 A3014 RMK AO2 T01170111
  • 241956Z AUTO 17006KT 10SM BKN031 11/11 A3015 RMK AO2 SLP210 T01110106

TAF KCEC
Valide du 24 à 20h jusqu'au 25 à 18h UTC


241939Z 2420/2518 17009KT P6SM FEW004 SCT017
FM250300 16008KT 6SM -RA BR OVC009
FM250800 16010KT 5SM BR BKN011
FM251100 17009KT 6SM BR OVC007



MET'MAP, la Météo Aéronautique d'un coup d'oeil ! - Copyright ORBIFLY Décembre 2007 - Disclaimer

ORBIFLY MET'MAP TEAM :

Programmation & Développement : Alexandra Zaïnal
Sur une idée originale de : Baudouin d'Aumeries
Assistance à la programmation : Marc-Olivier Méhu
Soutien technique & logistique : Manuel Goepfert

Contact : metmap@orbifly.com




SOURCES & CREDITS :

   NOAA       Earth
Advisory